createdAt,value
2019-02-27T00:00:11.990Z,22.13
2019-02-27T00:02:40.686Z,22.22
2019-02-27T00:05:09.348Z,21.75
2019-02-27T00:07:37.995Z,21.65
2019-02-27T00:10:07.703Z,22.13
2019-02-27T00:12:36.264Z,21.68
2019-02-27T00:15:06.220Z,21.50
2019-02-27T00:17:34.852Z,21.60
2019-02-27T00:20:05.154Z,22.27
2019-02-27T00:22:34.174Z,21.93
2019-02-27T00:25:03.386Z,22.60
2019-02-27T00:27:32.818Z,22.15
2019-02-27T00:30:04.638Z,22.65
2019-02-27T00:32:31.794Z,22.95
2019-02-27T00:35:00.455Z,22.15
2019-02-27T00:37:29.039Z,22.37
2019-02-27T00:39:57.736Z,22.32
2019-02-27T00:42:33.298Z,22.30
2019-02-27T00:44:56.595Z,22.75
2019-02-27T00:47:25.223Z,22.07
2019-02-27T00:49:53.866Z,22.05
2019-02-27T00:52:22.520Z,21.52
2019-02-27T00:54:51.236Z,21.97
2019-02-27T00:57:20.826Z,22.13
2019-02-27T00:59:50.338Z,22.65
2019-02-27T01:02:20.159Z,23.02
2019-02-27T01:04:49.262Z,22.13
2019-02-27T01:07:20.739Z,22.75
2019-02-27T01:09:48.256Z,22.90
2019-02-27T01:12:16.903Z,22.60
2019-02-27T01:14:45.562Z,21.97
2019-02-27T01:17:14.291Z,22.87
2019-02-27T01:19:43.127Z,22.67
2019-02-27T01:22:11.900Z,23.80
2019-02-27T01:24:40.810Z,23.10
2019-02-27T01:27:09.458Z,23.98
2019-02-27T01:29:38.116Z,22.90
2019-02-27T01:32:06.825Z,22.07
2019-02-27T01:34:35.408Z,22.42
2019-02-27T01:37:04.063Z,22.55
2019-02-27T01:39:32.760Z,22.60
2019-02-27T01:42:01.409Z,22.70
2019-02-27T01:44:30.060Z,22.65
2019-02-27T01:47:01.632Z,21.93
2019-02-27T01:49:29.047Z,21.87
2019-02-27T01:51:59.132Z,21.25
2019-02-27T01:54:27.919Z,21.97
2019-02-27T01:56:56.564Z,21.87
2019-02-27T01:59:25.486Z,21.27
2019-02-27T02:01:54.132Z,21.90
2019-02-27T02:04:22.800Z,22.93
2019-02-27T02:06:51.472Z,21.42
2019-02-27T02:09:31.029Z,21.15
2019-02-27T02:12:01.987Z,20.95
2019-02-27T02:14:54.138Z,21.82
2019-02-27T02:17:49.464Z,21.73
2019-02-27T02:20:42.500Z,20.25
2019-02-27T02:23:23.189Z,21.65
2019-02-27T02:26:06.962Z,20.88
2019-02-27T02:28:50.857Z,21.55
2019-02-27T02:31:25.419Z,20.45
2019-02-27T02:34:06.363Z,20.65
2019-02-27T02:37:02.828Z,21.35
2019-02-27T02:39:34.996Z,20.35
2019-02-27T02:42:29.315Z,21.50
2019-02-27T02:45:13.396Z,20.85
2019-02-27T02:48:00.117Z,20.43
2019-02-27T02:50:31.926Z,21.27
2019-02-27T02:53:25.163Z,20.52
2019-02-27T02:56:17.553Z,20.70
2019-02-27T02:59:24.949Z,19.80
2019-02-27T03:02:07.501Z,20.52
2019-02-27T03:04:53.518Z,20.02
2019-02-27T03:07:28.077Z,21.23
2019-02-27T03:10:07.018Z,19.95
2019-02-27T03:12:48.297Z,19.15
2019-02-27T03:15:28.413Z,19.98
2019-02-27T03:18:21.611Z,20.20
2019-02-27T03:21:09.618Z,21.02
2019-02-27T03:24:02.692Z,20.10
2019-02-27T03:26:34.459Z,19.80
2019-02-27T03:29:15.810Z,19.90
2019-02-27T03:32:00.656Z,20.20
2019-02-27T03:34:48.170Z,20.48
2019-02-27T03:37:40.134Z,20.45
2019-02-27T03:40:29.760Z,20.32
2019-02-27T03:43:15.874Z,20.12
2019-02-27T03:46:11.913Z,20.70
2019-02-27T03:48:49.658Z,19.65
2019-02-27T03:51:38.562Z,22.20
2019-02-27T03:54:22.254Z,20.15
2019-02-27T03:57:19.026Z,19.62
2019-02-27T04:00:04.979Z,20.65
2019-02-27T04:02:53.429Z,20.80
2019-02-27T04:05:50.821Z,20.02
2019-02-27T04:08:34.715Z,20.17
2019-02-27T04:11:06.047Z,19.92
2019-02-27T04:13:33.641Z,19.70
2019-02-27T04:16:02.277Z,19.62
2019-02-27T04:18:29.886Z,19.75
2019-02-27T04:20:58.518Z,19.85
2019-02-27T04:23:27.235Z,20.30
2019-02-27T04:25:55.878Z,21.02
2019-02-27T04:28:29.497Z,20.23
2019-02-27T04:30:54.798Z,21.40
2019-02-27T04:33:24.293Z,19.98
2019-02-27T04:35:53.257Z,21.07
2019-02-27T04:38:21.969Z,20.43
2019-02-27T04:40:50.539Z,20.40
2019-02-27T04:43:19.174Z,20.35
2019-02-27T04:45:47.874Z,20.08
2019-02-27T04:48:16.514Z,21.62
2019-02-27T04:50:45.180Z,20.62
2019-02-27T04:53:15.006Z,21.42
2019-02-27T04:55:43.631Z,20.00
2019-02-27T04:58:12.264Z,20.25
2019-02-27T05:00:40.950Z,21.17
2019-02-27T05:03:09.613Z,20.48
2019-02-27T05:05:39.149Z,22.25
2019-02-27T05:08:08.429Z,21.35
2019-02-27T05:10:38.170Z,20.97
2019-02-27T05:13:07.405Z,20.00
2019-02-27T05:15:38.910Z,22.73
2019-02-27T05:18:06.288Z,21.02
2019-02-27T05:20:34.934Z,20.32
2019-02-27T05:23:03.628Z,20.92
2019-02-27T05:25:32.270Z,21.05
2019-02-27T05:28:01.433Z,20.20
2019-02-27T05:30:30.721Z,20.97
2019-02-27T05:33:02.245Z,21.12
2019-02-27T05:35:29.653Z,21.17
2019-02-27T05:37:58.360Z,21.25
2019-02-27T05:40:27.017Z,21.10
2019-02-27T05:42:55.647Z,21.55
2019-02-27T05:45:24.266Z,22.55
2019-02-27T05:47:52.921Z,21.97
2019-02-27T05:50:21.552Z,21.85
2019-02-27T05:52:50.200Z,21.35
2019-02-27T05:55:19.693Z,20.90
2019-02-27T05:57:48.350Z,21.27
2019-02-27T06:00:19.343Z,22.93
2019-02-27T06:02:47.978Z,21.02
2019-02-27T06:05:16.552Z,20.43
2019-02-27T06:07:45.178Z,19.90
2019-02-27T06:10:20.213Z,20.70
2019-02-27T06:12:48.171Z,21.20
2019-02-27T06:15:18.119Z,20.77
2019-02-27T06:17:49.093Z,20.68
2019-02-27T06:20:17.143Z,21.15
2019-02-27T06:22:45.749Z,20.57
2019-02-27T06:25:21.842Z,20.80
2019-02-27T06:27:47.241Z,20.60
2019-02-27T06:30:17.889Z,20.72
2019-02-27T06:32:46.535Z,20.20
2019-02-27T06:35:15.705Z,20.82
2019-02-27T06:37:44.280Z,20.02
2019-02-27T06:40:18.250Z,20.27
2019-02-27T06:42:47.268Z,19.57
2019-02-27T06:45:17.409Z,19.30
2019-02-27T06:47:46.058Z,19.25
2019-02-27T06:50:17.995Z,18.62
2019-02-27T06:52:46.661Z,18.98
2019-02-27T06:55:15.928Z,18.62
2019-02-27T06:57:45.028Z,18.90
2019-02-27T07:00:16.269Z,19.27
2019-02-27T07:02:44.919Z,20.03
2019-02-27T07:05:14.151Z,18.85
2019-02-27T07:07:42.981Z,19.50
2019-02-27T07:10:19.472Z,19.25
2019-02-27T07:12:46.639Z,19.77
2019-02-27T07:15:24.069Z,20.57
2019-02-27T07:17:52.753Z,19.75
2019-02-27T07:20:24.283Z,20.88
2019-02-27T07:22:51.720Z,21.45
2019-02-27T07:25:20.415Z,21.25
2019-02-27T07:27:49.069Z,21.85
2019-02-27T07:30:18.931Z,21.93
2019-02-27T07:32:47.620Z,22.07
2019-02-27T07:35:16.657Z,21.75
2019-02-27T07:37:48.003Z,23.42
2019-02-27T07:40:20.237Z,24.47
2019-02-27T07:42:48.894Z,23.92
2019-02-27T07:45:22.996Z,26.48
2019-02-27T07:47:51.819Z,25.97
2019-02-27T07:50:21.266Z,26.12
2019-02-27T07:52:51.951Z,28.47
2019-02-27T07:55:22.963Z,28.65
2019-02-27T07:57:50.470Z,31.17
2019-02-27T08:00:20.419Z,30.77
2019-02-27T08:02:49.129Z,33.53
2019-02-27T08:05:17.907Z,31.73
2019-02-27T08:07:49.073Z,30.97
2019-02-27T08:10:27.532Z,31.70
2019-02-27T08:12:56.751Z,31.50
2019-02-27T08:15:25.950Z,30.92
2019-02-27T08:17:57.663Z,34.03
2019-02-27T08:20:24.986Z,34.43
2019-02-27T08:22:53.953Z,30.60
2019-02-27T08:25:22.650Z,30.35
2019-02-27T08:27:51.315Z,31.87
2019-02-27T08:30:23.985Z,30.27
2019-02-27T08:32:52.677Z,32.10
2019-02-27T08:35:21.339Z,32.35
2019-02-27T08:37:49.920Z,32.35
2019-02-27T08:40:18.545Z,32.15
2019-02-27T08:42:47.189Z,33.60
2019-02-27T08:45:20.168Z,33.60
2019-02-27T08:47:47.596Z,34.55
2019-02-27T08:50:21.464Z,33.67
2019-02-27T08:52:51.534Z,33.80
2019-02-27T08:55:22.652Z,33.78
2019-02-27T08:57:55.870Z,34.67
2019-02-27T09:00:27.273Z,36.45
2019-02-27T09:02:56.039Z,34.90
2019-02-27T09:05:24.655Z,35.33
2019-02-27T09:07:53.342Z,35.35
2019-02-27T09:10:29.383Z,35.58
2019-02-27T09:13:04.994Z,34.63
2019-02-27T09:15:26.832Z,36.08
2019-02-27T09:17:59.273Z,35.05
2019-02-27T09:20:26.796Z,34.98
2019-02-27T09:22:55.920Z,37.78
2019-02-27T09:25:25.076Z,37.45
2019-02-27T09:27:53.912Z,36.13
2019-02-27T09:30:28.813Z,36.68
2019-02-27T09:32:53.969Z,35.78
2019-02-27T09:35:22.674Z,36.50
2019-02-27T09:37:52.034Z,36.88
2019-02-27T09:40:25.797Z,36.53
2019-02-27T09:42:54.426Z,36.60
2019-02-27T09:45:28.516Z,37.80
2019-02-27T09:47:59.568Z,36.08
2019-02-27T09:50:30.579Z,36.58
2019-02-27T09:53:01.106Z,37.33
2019-02-27T09:55:29.497Z,37.53
2019-02-27T09:57:58.157Z,38.42
2019-02-27T10:00:35.653Z,36.55
2019-02-27T10:03:04.414Z,36.28
2019-02-27T10:05:36.345Z,36.88
2019-02-27T10:08:03.420Z,36.58
2019-02-27T10:10:32.142Z,37.90
2019-02-27T10:13:03.310Z,36.23
2019-02-27T10:15:31.071Z,37.08
2019-02-27T10:17:59.771Z,35.17
2019-02-27T10:20:28.421Z,34.33
2019-02-27T10:22:57.056Z,33.67
2019-02-27T10:25:25.694Z,34.60
2019-02-27T10:27:54.357Z,34.85
2019-02-27T10:30:23.012Z,32.93
2019-02-27T10:32:51.695Z,31.23
2019-02-27T10:35:20.215Z,32.10
2019-02-27T10:37:50.783Z,27.20
2019-02-27T10:40:21.783Z,28.32
2019-02-27T10:42:51.339Z,27.73
2019-02-27T10:45:20.282Z,29.37
2019-02-27T10:47:48.979Z,32.33
2019-02-27T10:50:17.616Z,32.20
2019-02-27T10:52:46.185Z,28.00
2019-02-27T10:55:20.342Z,26.93
2019-02-27T10:57:48.979Z,26.17
2019-02-27T11:00:27.516Z,28.45
2019-02-27T11:02:56.152Z,27.25
2019-02-27T11:05:26.616Z,27.15
2019-02-27T11:07:55.879Z,29.05
2019-02-27T11:10:24.619Z,32.95
2019-02-27T11:12:53.265Z,31.97
2019-02-27T11:15:23.269Z,31.20
2019-02-27T11:17:51.945Z,29.00
2019-02-27T11:20:21.792Z,29.57
2019-02-27T11:22:50.857Z,31.25
2019-02-27T11:25:27.484Z,32.95
2019-02-27T11:27:56.183Z,31.90
2019-02-27T11:30:30.036Z,34.40
2019-02-27T11:32:58.621Z,33.38
2019-02-27T11:35:27.323Z,31.70
2019-02-27T11:37:55.971Z,32.93
2019-02-27T11:40:26.024Z,33.92
2019-02-27T11:42:54.633Z,32.65
2019-02-27T11:45:24.673Z,30.75
2019-02-27T11:47:53.643Z,32.17
2019-02-27T11:50:22.339Z,33.73
2019-02-27T11:52:51.195Z,33.55
2019-02-27T11:55:21.446Z,32.53
2019-02-27T11:57:50.539Z,32.83
2019-02-27T12:00:30.770Z,30.72
2019-02-27T12:02:59.959Z,30.52
2019-02-27T12:05:33.725Z,29.40
2019-02-27T12:07:59.215Z,30.97
2019-02-27T12:10:31.800Z,30.82
2019-02-27T12:13:01.412Z,32.38
2019-02-27T12:15:30.434Z,31.05
2019-02-27T12:18:00.506Z,31.52
2019-02-27T12:20:29.422Z,30.77
2019-02-27T12:22:58.094Z,30.37
2019-02-27T12:25:29.658Z,30.25
2019-02-27T12:27:57.506Z,31.97
2019-02-27T12:30:30.503Z,29.18
2019-02-27T12:32:59.098Z,28.12
2019-02-27T12:35:30.233Z,29.90
2019-02-27T12:37:58.931Z,29.05
2019-02-27T12:40:27.572Z,31.07
2019-02-27T12:42:56.209Z,37.23
2019-02-27T12:45:29.422Z,34.30
2019-02-27T12:47:57.196Z,37.28
2019-02-27T12:50:31.136Z,37.88
2019-02-27T12:52:59.244Z,38.05
2019-02-27T12:55:27.887Z,35.13
2019-02-27T12:57:56.562Z,37.80
2019-02-27T13:00:32.576Z,35.25
2019-02-27T13:03:01.224Z,35.10
2019-02-27T13:05:29.908Z,36.03
2019-02-27T13:07:58.581Z,36.85
2019-02-27T13:10:34.113Z,38.23
2019-02-27T13:13:00.450Z,36.58
2019-02-27T13:15:31.740Z,37.00
2019-02-27T13:18:00.377Z,35.37
2019-02-27T13:20:30.246Z,36.00
2019-02-27T13:23:04.162Z,34.92
2019-02-27T13:25:30.357Z,33.75
2019-02-27T13:27:59.333Z,34.70
2019-02-27T13:30:28.545Z,32.75
2019-02-27T13:33:00.602Z,33.45
2019-02-27T13:35:28.659Z,31.68
2019-02-27T13:37:57.858Z,32.93
2019-02-27T13:40:27.721Z,33.60
2019-02-27T13:42:56.237Z,31.55
2019-02-27T13:45:27.008Z,30.72
2019-02-27T13:47:55.620Z,29.65
2019-02-27T13:50:26.647Z,30.15
2019-02-27T13:52:54.554Z,30.02
2019-02-27T13:55:23.902Z,31.37
2019-02-27T13:57:52.560Z,29.80
2019-02-27T14:00:27.235Z,30.25
2019-02-27T14:02:55.910Z,30.55
2019-02-27T14:05:24.543Z,28.02
2019-02-27T14:07:57.147Z,26.57
2019-02-27T14:10:31.642Z,28.73
2019-02-27T14:13:00.350Z,27.00
2019-02-27T14:15:31.328Z,27.07
2019-02-27T14:17:59.730Z,24.57
2019-02-27T14:20:29.160Z,26.65
2019-02-27T14:22:58.093Z,26.73
2019-02-27T14:25:33.098Z,26.35
2019-02-27T14:28:01.398Z,25.60
2019-02-27T14:30:50.903Z,26.48
2019-02-27T14:33:20.467Z,27.27
2019-02-27T14:35:49.428Z,26.65
2019-02-27T14:38:17.998Z,24.98
2019-02-27T14:40:46.720Z,22.75
2019-02-27T14:43:15.375Z,22.90
2019-02-27T14:45:44.018Z,20.32
2019-02-27T14:48:12.645Z,26.82
2019-02-27T14:50:41.226Z,29.20
2019-02-27T14:53:09.887Z,31.20
2019-02-27T14:55:38.588Z,32.35
2019-02-27T14:58:07.267Z,31.20
2019-02-27T15:00:40.958Z,29.10
2019-02-27T15:03:09.048Z,25.82
2019-02-27T15:05:43.203Z,24.37
2019-02-27T15:08:07.927Z,30.85
2019-02-27T15:10:40.084Z,28.20
2019-02-27T15:13:07.032Z,31.52
2019-02-27T15:15:35.678Z,31.70
2019-02-27T15:18:04.910Z,31.45
2019-02-27T15:20:34.641Z,33.30
2019-02-27T15:23:03.395Z,33.00
2019-02-27T15:25:32.095Z,33.98
2019-02-27T15:28:00.745Z,31.35
2019-02-27T15:30:31.641Z,30.77
2019-02-27T15:33:04.003Z,32.53
2019-02-27T15:35:30.676Z,32.65
2019-02-27T15:37:59.274Z,34.27
2019-02-27T15:40:30.141Z,36.55
2019-02-27T15:42:59.071Z,37.83
2019-02-27T15:45:28.492Z,35.03
2019-02-27T15:47:57.137Z,40.78
2019-02-27T15:50:33.726Z,41.77
2019-02-27T15:53:02.430Z,42.17
2019-02-27T15:55:34.324Z,42.00
2019-02-27T15:58:01.378Z,41.95
2019-02-27T16:00:30.087Z,40.63
2019-02-27T16:02:58.733Z,39.98
2019-02-27T16:05:31.518Z,42.13
2019-02-27T16:07:57.748Z,44.42
2019-02-27T16:10:29.915Z,41.73
2019-02-27T16:15:28.120Z,43.48
2019-02-27T16:17:56.766Z,44.03
2019-02-27T16:20:29.572Z,43.52
2019-02-27T16:22:58.296Z,43.40
2019-02-27T16:25:28.161Z,44.30
2019-02-27T16:27:56.808Z,43.98
2019-02-27T16:30:34.981Z,44.20
2019-02-27T16:33:03.613Z,42.38
2019-02-27T16:35:32.300Z,44.13
2019-02-27T16:38:00.948Z,46.30
2019-02-27T16:40:32.422Z,44.85
2019-02-27T16:43:01.065Z,46.23
2019-02-27T16:45:35.752Z,46.50
2019-02-27T16:48:02.952Z,46.35
2019-02-27T16:50:31.591Z,46.40
2019-02-27T16:53:00.294Z,47.43
2019-02-27T16:55:29.637Z,45.88
2019-02-27T16:57:58.319Z,46.13
2019-02-27T17:00:35.635Z,47.13
2019-02-27T17:03:04.296Z,47.10
2019-02-27T17:05:32.879Z,45.35
2019-02-27T17:08:02.770Z,45.65
2019-02-27T17:10:33.756Z,47.43
2019-02-27T17:13:02.416Z,45.67
2019-02-27T17:15:34.765Z,48.30
2019-02-27T17:18:01.626Z,45.50
2019-02-27T17:20:30.224Z,46.20
2019-02-27T17:22:58.956Z,45.30
2019-02-27T17:25:30.065Z,46.42
2019-02-27T17:27:57.930Z,47.05
2019-02-27T17:30:36.415Z,45.60
2019-02-27T17:33:04.293Z,46.40
2019-02-27T17:35:33.126Z,45.92
2019-02-27T17:38:01.769Z,46.95
2019-02-27T17:40:30.444Z,45.30
2019-02-27T17:42:59.130Z,47.90
2019-02-27T17:45:28.633Z,47.35
2019-02-27T17:47:57.198Z,47.03
2019-02-27T17:50:30.910Z,47.38
2019-02-27T17:52:56.272Z,46.42
2019-02-27T17:55:24.924Z,47.27
2019-02-27T17:57:58.028Z,46.10
2019-02-27T18:00:29.632Z,46.80
2019-02-27T18:02:58.276Z,45.08
2019-02-27T18:05:26.934Z,46.20
2019-02-27T18:07:55.619Z,46.55
2019-02-27T18:10:24.255Z,43.05
2019-02-27T18:12:52.923Z,44.67
2019-02-27T18:15:22.605Z,42.85
2019-02-27T18:17:51.267Z,41.05
2019-02-27T18:20:24.360Z,44.95
2019-02-27T18:22:50.529Z,38.85
2019-02-27T18:25:19.532Z,40.33
2019-02-27T18:27:48.256Z,39.70
2019-02-27T18:30:20.390Z,36.20
2019-02-27T18:32:49.641Z,35.17
2019-02-27T18:35:19.375Z,36.05
2019-02-27T18:37:53.262Z,33.13
2019-02-27T18:40:19.278Z,32.33
2019-02-27T18:42:47.934Z,29.92
2019-02-27T18:45:19.729Z,23.27
2019-02-27T18:47:48.377Z,22.98
2019-02-27T18:50:17.072Z,21.07
2019-02-27T18:52:45.702Z,20.92
2019-02-27T18:55:16.311Z,19.82
2019-02-27T18:57:47.141Z,18.65
2019-02-27T19:00:22.906Z,16.82
2019-02-27T19:03:00.139Z,17.90
2019-02-27T19:05:28.825Z,18.42
2019-02-27T19:07:57.483Z,19.27
2019-02-27T19:10:26.107Z,16.97
2019-02-27T19:12:54.742Z,16.32
2019-02-27T19:15:27.227Z,17.00
2019-02-27T19:17:55.875Z,16.05
2019-02-27T19:20:33.574Z,17.37
2019-02-27T19:23:02.209Z,16.65
2019-02-27T19:25:34.296Z,16.77
2019-02-27T19:28:01.219Z,16.57
2019-02-27T19:30:29.962Z,17.15
2019-02-27T19:33:01.867Z,16.70
2019-02-27T19:35:28.982Z,17.92
2019-02-27T19:37:57.620Z,17.32
2019-02-27T19:40:30.083Z,17.65
2019-02-27T19:42:58.828Z,18.20
2019-02-27T19:45:27.482Z,19.37
2019-02-27T19:47:56.132Z,18.45
2019-02-27T19:50:25.125Z,19.62
2019-02-27T19:52:53.755Z,19.17
2019-02-27T19:55:26.224Z,19.23
2019-02-27T19:57:52.757Z,20.17
2019-02-27T20:00:24.283Z,20.40
2019-02-27T20:02:57.481Z,20.32
2019-02-27T20:05:23.511Z,20.15
2019-02-27T20:07:52.383Z,20.62
2019-02-27T20:10:21.031Z,19.90
2019-02-27T20:12:52.737Z,21.65
2019-02-27T20:15:24.300Z,19.70
2019-02-27T20:17:53.022Z,19.73
2019-02-27T20:20:23.324Z,21.15
2019-02-27T20:22:53.561Z,20.75
2019-02-27T20:25:29.910Z,20.37
2019-02-27T20:27:58.897Z,20.17
2019-02-27T20:30:27.798Z,19.45
2019-02-27T20:32:56.489Z,19.77
2019-02-27T20:35:25.161Z,19.62
2019-02-27T20:37:53.813Z,20.12
2019-02-27T20:40:22.498Z,19.50
2019-02-27T20:42:54.973Z,17.48
2019-02-27T20:45:22.986Z,19.10
2019-02-27T20:47:57.686Z,19.02
2019-02-27T20:53:01.289Z,18.55
2019-02-27T20:55:30.856Z,18.70
2019-02-27T20:58:00.227Z,18.30
2019-02-27T21:00:28.908Z,19.07
2019-02-27T21:02:59.626Z,18.15
2019-02-27T21:05:28.458Z,17.40
2019-02-27T21:08:00.901Z,18.57
2019-02-27T21:10:29.466Z,17.50
2019-02-27T21:12:58.120Z,14.83
2019-02-27T21:15:29.395Z,15.20
2019-02-27T21:17:58.746Z,15.07
2019-02-27T21:20:27.574Z,14.87
2019-02-27T21:22:56.293Z,15.10
2019-02-27T21:25:24.936Z,13.45
2019-02-27T21:27:53.601Z,13.70
2019-02-27T21:30:24.465Z,12.65
2019-02-27T21:32:54.132Z,14.10
2019-02-27T21:35:22.789Z,14.03
2019-02-27T21:37:51.493Z,12.25
2019-02-27T21:40:20.429Z,13.00
2019-02-27T21:42:50.824Z,12.65
2019-02-27T21:45:21.266Z,14.80
2019-02-27T21:47:51.741Z,14.20
2019-02-27T21:50:21.293Z,13.58
2019-02-27T21:52:50.002Z,14.38
2019-02-27T21:55:18.600Z,13.85
2019-02-27T21:57:47.258Z,15.35
2019-02-27T22:00:25.667Z,15.35
2019-02-27T22:02:55.814Z,16.00
2019-02-27T22:05:24.382Z,16.87
2019-02-27T22:07:52.931Z,19.10
2019-02-27T22:10:21.595Z,17.90
2019-02-27T22:12:50.245Z,20.25
2019-02-27T22:15:29.112Z,19.50
2019-02-27T22:17:57.678Z,19.42
2019-02-27T22:20:26.963Z,20.17
2019-02-27T22:22:56.079Z,21.55
2019-02-27T22:25:30.172Z,22.05
2019-02-27T22:27:54.873Z,21.50
2019-02-27T22:30:23.768Z,21.62
2019-02-27T22:32:52.426Z,21.48
2019-02-27T22:35:21.082Z,21.60
2019-02-27T22:37:52.280Z,21.85
2019-02-27T22:40:21.771Z,21.20
2019-02-27T22:42:50.435Z,19.42
2019-02-27T22:45:20.428Z,20.30
2019-02-27T22:47:50.304Z,19.30
2019-02-27T22:50:20.155Z,25.45
2019-02-27T22:52:54.154Z,29.27
2019-02-27T22:55:19.057Z,27.70
2019-02-27T22:57:47.708Z,29.87
2019-02-27T23:00:56.042Z,32.53
2019-02-27T23:03:30.432Z,36.15
2019-02-27T23:05:59.133Z,41.23
2019-02-27T23:08:27.724Z,40.08
2019-02-27T23:10:56.374Z,40.20
2019-02-27T23:13:25.089Z,42.48
2019-02-27T23:15:57.804Z,44.85
2019-02-27T23:18:23.934Z,44.67
2019-02-27T23:20:55.532Z,44.77
2019-02-27T23:23:22.799Z,45.73
2019-02-27T23:25:51.366Z,45.20
2019-02-27T23:28:20.053Z,47.55
2019-02-27T23:30:48.716Z,45.58
2019-02-27T23:33:17.963Z,46.95
2019-02-27T23:35:47.280Z,45.05
2019-02-27T23:38:17.055Z,45.55
2019-02-27T23:40:48.982Z,44.73
2019-02-27T23:43:16.025Z,43.10
2019-02-27T23:45:45.213Z,44.98
2019-02-27T23:48:14.118Z,42.90
2019-02-27T23:50:43.307Z,43.80
2019-02-27T23:53:12.022Z,44.55
2019-02-27T23:55:44.192Z,45.08
2019-02-27T23:58:11.032Z,42.35
